sensor_id;sensor_type;location;lat;lon;timestamp;temperature;humidity
32698;DHT22;19087;51.062;3.754;2023-04-06T00:00:35;10.20;86.40
32698;DHT22;19087;51.062;3.754;2023-04-06T00:03:02;10.20;86.70
32698;DHT22;19087;51.062;3.754;2023-04-06T00:05:28;10.10;86.90
32698;DHT22;19087;51.062;3.754;2023-04-06T00:07:57;10.10;87.00
32698;DHT22;19087;51.062;3.754;2023-04-06T00:10:23;10.10;87.30
32698;DHT22;19087;51.062;3.754;2023-04-06T00:12:48;10.00;87.80
32698;DHT22;19087;51.062;3.754;2023-04-06T00:15:15;9.90;88.30
32698;DHT22;19087;51.062;3.754;2023-04-06T00:17:40;9.90;88.40
32698;DHT22;19087;51.062;3.754;2023-04-06T00:20:06;9.80;88.80
32698;DHT22;19087;51.062;3.754;2023-04-06T00:22:33;9.70;89.20
32698;DHT22;19087;51.062;3.754;2023-04-06T00:24:58;9.70;89.60
32698;DHT22;19087;51.062;3.754;2023-04-06T00:27:27;9.80;89.70
32698;DHT22;19087;51.062;3.754;2023-04-06T00:29:55;9.70;89.80
32698;DHT22;19087;51.062;3.754;2023-04-06T00:32:20;9.70;90.10
32698;DHT22;19087;51.062;3.754;2023-04-06T00:34:46;9.60;90.20
32698;DHT22;19087;51.062;3.754;2023-04-06T00:37:13;9.70;90.30
32698;DHT22;19087;51.062;3.754;2023-04-06T00:39:38;9.80;90.30
32698;DHT22;19087;51.062;3.754;2023-04-06T00:42:08;9.80;90.40
32698;DHT22;19087;51.062;3.754;2023-04-06T00:44:36;9.90;90.40
32698;DHT22;19087;51.062;3.754;2023-04-06T00:47:02;10.00;90.30
32698;DHT22;19087;51.062;3.754;2023-04-06T00:49:28;10.10;90.20
32698;DHT22;19087;51.062;3.754;2023-04-06T00:51:53;10.20;90.10
32698;DHT22;19087;51.062;3.754;2023-04-06T00:54:19;10.20;90.00
32698;DHT22;19087;51.062;3.754;2023-04-06T00:56:45;10.20;90.20
32698;DHT22;19087;51.062;3.754;2023-04-06T00:59:11;10.10;90.40
32698;DHT22;19087;51.062;3.754;2023-04-06T01:01:38;10.20;90.50
32698;DHT22;19087;51.062;3.754;2023-04-06T01:04:03;10.20;90.50
32698;DHT22;19087;51.062;3.754;2023-04-06T01:06:29;10.10;90.70
32698;DHT22;19087;51.062;3.754;2023-04-06T01:08:56;10.00;91.10
32698;DHT22;19087;51.062;3.754;2023-04-06T01:11:21;9.80;91.30
32698;DHT22;19087;51.062;3.754;2023-04-06T01:13:47;9.80;91.50
32698;DHT22;19087;51.062;3.754;2023-04-06T01:16:13;10.00;91.50
32698;DHT22;19087;51.062;3.754;2023-04-06T01:18:38;10.00;91.60
32698;DHT22;19087;51.062;3.754;2023-04-06T01:21:04;10.00;91.50
32698;DHT22;19087;51.062;3.754;2023-04-06T01:23:30;10.00;91.60
32698;DHT22;19087;51.062;3.754;2023-04-06T01:25:56;10.00;91.70
32698;DHT22;19087;51.062;3.754;2023-04-06T01:28:22;10.00;91.80
32698;DHT22;19087;51.062;3.754;2023-04-06T01:30:49;9.80;92.10
32698;DHT22;19087;51.062;3.754;2023-04-06T01:33:14;9.80;92.20
32698;DHT22;19087;51.062;3.754;2023-04-06T01:35:40;9.80;92.60
32698;DHT22;19087;51.062;3.754;2023-04-06T01:38:06;9.90;92.30
32698;DHT22;19087;51.062;3.754;2023-04-06T01:40:31;10.00;92.40
32698;DHT22;19087;51.062;3.754;2023-04-06T01:42:57;10.00;92.50
32698;DHT22;19087;51.062;3.754;2023-04-06T01:45:22;10.00;92.50
32698;DHT22;19087;51.062;3.754;2023-04-06T01:47:48;10.00;92.60
32698;DHT22;19087;51.062;3.754;2023-04-06T01:50:13;9.90;92.70
32698;DHT22;19087;51.062;3.754;2023-04-06T01:52:39;9.90;92.90
32698;DHT22;19087;51.062;3.754;2023-04-06T01:55:04;9.90;93.00
32698;DHT22;19087;51.062;3.754;2023-04-06T01:57:32;9.90;93.10
32698;DHT22;19087;51.062;3.754;2023-04-06T01:59:59;9.80;93.30
32698;DHT22;19087;51.062;3.754;2023-04-06T02:02:26;9.80;93.30
32698;DHT22;19087;51.062;3.754;2023-04-06T02:04:52;9.90;93.40
32698;DHT22;19087;51.062;3.754;2023-04-06T02:07:17;10.00;93.40
32698;DHT22;19087;51.062;3.754;2023-04-06T02:09:43;10.00;93.30
32698;DHT22;19087;51.062;3.754;2023-04-06T02:12:09;10.00;93.50
32698;DHT22;19087;51.062;3.754;2023-04-06T02:14:35;9.90;93.90
32698;DHT22;19087;51.062;3.754;2023-04-06T02:17:00;9.80;94.00
32698;DHT22;19087;51.062;3.754;2023-04-06T02:19:26;9.90;94.10
32698;DHT22;19087;51.062;3.754;2023-04-06T02:21:52;9.80;94.20
32698;DHT22;19087;51.062;3.754;2023-04-06T02:24:17;9.80;94.50
32698;DHT22;19087;51.062;3.754;2023-04-06T02:26:43;9.80;94.50
32698;DHT22;19087;51.062;3.754;2023-04-06T02:29:08;9.80;94.60
32698;DHT22;19087;51.062;3.754;2023-04-06T02:31:36;9.80;94.80
32698;DHT22;19087;51.062;3.754;2023-04-06T02:34:01;9.80;95.00
32698;DHT22;19087;51.062;3.754;2023-04-06T02:36:27;9.80;95.10
32698;DHT22;19087;51.062;3.754;2023-04-06T02:38:53;9.70;95.40
32698;DHT22;19087;51.062;3.754;2023-04-06T02:41:18;9.70;95.60
32698;DHT22;19087;51.062;3.754;2023-04-06T02:43:45;9.70;95.70
32698;DHT22;19087;51.062;3.754;2023-04-06T02:46:12;9.70;95.70
32698;DHT22;19087;51.062;3.754;2023-04-06T02:48:37;9.80;95.70
32698;DHT22;19087;51.062;3.754;2023-04-06T02:51:03;10.10;95.50
32698;DHT22;19087;51.062;3.754;2023-04-06T02:53:29;10.10;95.40
32698;DHT22;19087;51.062;3.754;2023-04-06T02:55:55;10.30;95.30
32698;DHT22;19087;51.062;3.754;2023-04-06T02:58:21;10.50;95.10
32698;DHT22;19087;51.062;3.754;2023-04-06T03:00:46;10.50;95.10
32698;DHT22;19087;51.062;3.754;2023-04-06T03:03:12;10.40;95.20
32698;DHT22;19087;51.062;3.754;2023-04-06T03:05:38;10.40;95.30
32698;DHT22;19087;51.062;3.754;2023-04-06T03:08:03;10.30;95.50
32698;DHT22;19087;51.062;3.754;2023-04-06T03:10:29;10.20;95.80
32698;DHT22;19087;51.062;3.754;2023-04-06T03:12:55;10.20;96.00
32698;DHT22;19087;51.062;3.754;2023-04-06T03:15:20;10.30;96.00
32698;DHT22;19087;51.062;3.754;2023-04-06T03:17:46;10.30;96.00
32698;DHT22;19087;51.062;3.754;2023-04-06T03:20:12;10.20;96.20
32698;DHT22;19087;51.062;3.754;2023-04-06T03:22:37;10.10;96.40
32698;DHT22;19087;51.062;3.754;2023-04-06T03:25:03;10.10;96.50
32698;DHT22;19087;51.062;3.754;2023-04-06T03:27:28;10.10;96.70
32698;DHT22;19087;51.062;3.754;2023-04-06T03:29:54;10.10;96.70
32698;DHT22;19087;51.062;3.754;2023-04-06T03:32:20;10.10;96.90
32698;DHT22;19087;51.062;3.754;2023-04-06T03:34:46;9.90;97.20
32698;DHT22;19087;51.062;3.754;2023-04-06T03:37:11;9.90;97.40
32698;DHT22;19087;51.062;3.754;2023-04-06T03:39:37;9.90;97.50
32698;DHT22;19087;51.062;3.754;2023-04-06T03:42:02;9.90;97.80
32698;DHT22;19087;51.062;3.754;2023-04-06T03:44:30;9.80;98.30
32698;DHT22;19087;51.062;3.754;2023-04-06T03:46:56;9.90;98.20
32698;DHT22;19087;51.062;3.754;2023-04-06T03:49:21;9.70;98.70
32698;DHT22;19087;51.062;3.754;2023-04-06T03:51:47;9.70;98.90
32698;DHT22;19087;51.062;3.754;2023-04-06T03:54:12;9.80;99.10
32698;DHT22;19087;51.062;3.754;2023-04-06T03:56:38;10.00;98.90
32698;DHT22;19087;51.062;3.754;2023-04-06T03:59:04;10.10;98.80
32698;DHT22;19087;51.062;3.754;2023-04-06T04:01:29;10.00;99.20
32698;DHT22;19087;51.062;3.754;2023-04-06T04:03:55;9.80;99.80
32698;DHT22;19087;51.062;3.754;2023-04-06T04:06:21;9.90;99.80
32698;DHT22;19087;51.062;3.754;2023-04-06T04:08:46;9.80;99.90
32698;DHT22;19087;51.062;3.754;2023-04-06T04:11:13;9.60;99.90
32698;DHT22;19087;51.062;3.754;2023-04-06T04:13:38;9.60;99.90
32698;DHT22;19087;51.062;3.754;2023-04-06T04:16:04;9.70;99.90
32698;DHT22;19087;51.062;3.754;2023-04-06T04:18:30;9.70;99.90
32698;DHT22;19087;51.062;3.754;2023-04-06T04:20:56;9.50;99.90
32698;DHT22;19087;51.062;3.754;2023-04-06T04:23:22;9.40;99.90
32698;DHT22;19087;51.062;3.754;2023-04-06T04:25:48;9.70;99.90
32698;DHT22;19087;51.062;3.754;2023-04-06T04:28:13;9.80;99.90
32698;DHT22;19087;51.062;3.754;2023-04-06T04:30:39;9.90;99.90
32698;DHT22;19087;51.062;3.754;2023-04-06T04:33:06;10.00;99.90
32698;DHT22;19087;51.062;3.754;2023-04-06T04:35:31;9.90;99.90
32698;DHT22;19087;51.062;3.754;2023-04-06T04:37:57;10.00;99.90
32698;DHT22;19087;51.062;3.754;2023-04-06T04:40:22;9.90;99.90
32698;DHT22;19087;51.062;3.754;2023-04-06T04:42:48;9.90;99.90
32698;DHT22;19087;51.062;3.754;2023-04-06T04:45:16;9.70;99.90
32698;DHT22;19087;51.062;3.754;2023-04-06T04:47:41;9.90;99.90
32698;DHT22;19087;51.062;3.754;2023-04-06T04:50:07;9.80;99.90
32698;DHT22;19087;51.062;3.754;2023-04-06T04:52:33;9.60;99.90
32698;DHT22;19087;51.062;3.754;2023-04-06T04:54:58;9.50;99.90
32698;DHT22;19087;51.062;3.754;2023-04-06T04:57:24;9.40;99.90
32698;DHT22;19087;51.062;3.754;2023-04-06T04:59:49;9.40;99.90
32698;DHT22;19087;51.062;3.754;2023-04-06T05:02:16;9.40;99.90
32698;DHT22;19087;51.062;3.754;2023-04-06T05:04:42;9.40;99.90
32698;DHT22;19087;51.062;3.754;2023-04-06T05:07:08;9.50;99.90
32698;DHT22;19087;51.062;3.754;2023-04-06T05:09:33;9.60;99.90
32698;DHT22;19087;51.062;3.754;2023-04-06T05:11:59;9.50;99.90
32698;DHT22;19087;51.062;3.754;2023-04-06T05:14:26;9.50;99.90
32698;DHT22;19087;51.062;3.754;2023-04-06T05:16:51;9.40;99.90
32698;DHT22;19087;51.062;3.754;2023-04-06T05:19:17;9.30;99.90
32698;DHT22;19087;51.062;3.754;2023-04-06T05:21:43;9.20;99.90
32698;DHT22;19087;51.062;3.754;2023-04-06T05:24:09;9.10;99.90
32698;DHT22;19087;51.062;3.754;2023-04-06T05:26:34;9.10;99.90
32698;DHT22;19087;51.062;3.754;2023-04-06T05:29:00;9.40;99.90
32698;DHT22;19087;51.062;3.754;2023-04-06T05:31:26;9.30;99.90
32698;DHT22;19087;51.062;3.754;2023-04-06T05:33:52;9.20;99.90
32698;DHT22;19087;51.062;3.754;2023-04-06T05:36:17;9.30;99.90
32698;DHT22;19087;51.062;3.754;2023-04-06T05:38:43;9.40;99.90
32698;DHT22;19087;51.062;3.754;2023-04-06T05:41:09;9.40;99.90
32698;DHT22;19087;51.062;3.754;2023-04-06T05:43:34;9.20;99.90
32698;DHT22;19087;51.062;3.754;2023-04-06T05:46:01;9.20;99.90
32698;DHT22;19087;51.062;3.754;2023-04-06T05:48:27;9.00;99.90
32698;DHT22;19087;51.062;3.754;2023-04-06T05:50:53;8.90;99.90
32698;DHT22;19087;51.062;3.754;2023-04-06T05:53:19;8.80;99.90
32698;DHT22;19087;51.062;3.754;2023-04-06T05:55:46;8.60;99.90
32698;DHT22;19087;51.062;3.754;2023-04-06T05:58:13;8.50;99.90
32698;DHT22;19087;51.062;3.754;2023-04-06T06:00:38;8.50;99.90
32698;DHT22;19087;51.062;3.754;2023-04-06T06:03:04;8.40;99.90
32698;DHT22;19087;51.062;3.754;2023-04-06T06:05:31;8.50;99.90
32698;DHT22;19087;51.062;3.754;2023-04-06T06:07:57;8.50;99.90
32698;DHT22;19087;51.062;3.754;2023-04-06T06:10:22;8.50;99.90
32698;DHT22;19087;51.062;3.754;2023-04-06T06:12:48;8.50;99.90
32698;DHT22;19087;51.062;3.754;2023-04-06T06:15:13;8.50;99.90
32698;DHT22;19087;51.062;3.754;2023-04-06T06:17:39;8.50;99.90
32698;DHT22;19087;51.062;3.754;2023-04-06T06:20:08;8.50;99.90
32698;DHT22;19087;51.062;3.754;2023-04-06T06:22:34;8.40;99.90
32698;DHT22;19087;51.062;3.754;2023-04-06T06:24:59;8.40;99.90
32698;DHT22;19087;51.062;3.754;2023-04-06T06:27:25;8.40;99.90
32698;DHT22;19087;51.062;3.754;2023-04-06T06:29:51;8.30;99.90
32698;DHT22;19087;51.062;3.754;2023-04-06T06:32:17;8.20;99.90
32698;DHT22;19087;51.062;3.754;2023-04-06T06:34:43;8.30;99.90
32698;DHT22;19087;51.062;3.754;2023-04-06T06:37:08;8.30;99.90
32698;DHT22;19087;51.062;3.754;2023-04-06T06:39:34;8.40;99.90
32698;DHT22;19087;51.062;3.754;2023-04-06T06:42:01;8.40;99.90
32698;DHT22;19087;51.062;3.754;2023-04-06T06:44:27;8.40;99.90
32698;DHT22;19087;51.062;3.754;2023-04-06T06:46:53;8.50;99.90
32698;DHT22;19087;51.062;3.754;2023-04-06T06:49:19;8.70;99.90
32698;DHT22;19087;51.062;3.754;2023-04-06T06:51:44;8.70;99.90
32698;DHT22;19087;51.062;3.754;2023-04-06T06:54:12;8.80;99.90
32698;DHT22;19087;51.062;3.754;2023-04-06T06:56:38;8.90;99.90
32698;DHT22;19087;51.062;3.754;2023-04-06T06:59:04;9.10;99.90
32698;DHT22;19087;51.062;3.754;2023-04-06T07:01:32;9.20;99.90
32698;DHT22;19087;51.062;3.754;2023-04-06T07:03:58;9.40;99.90
32698;DHT22;19087;51.062;3.754;2023-04-06T07:06:24;9.50;99.90
32698;DHT22;19087;51.062;3.754;2023-04-06T07:08:50;9.50;99.90
32698;DHT22;19087;51.062;3.754;2023-04-06T07:11:16;9.70;99.90
32698;DHT22;19087;51.062;3.754;2023-04-06T07:13:42;9.90;99.90
32698;DHT22;19087;51.062;3.754;2023-04-06T07:16:07;9.90;99.90
32698;DHT22;19087;51.062;3.754;2023-04-06T07:18:33;9.90;99.90
32698;DHT22;19087;51.062;3.754;2023-04-06T07:20:59;9.90;99.90
32698;DHT22;19087;51.062;3.754;2023-04-06T07:23:24;10.00;99.90
32698;DHT22;19087;51.062;3.754;2023-04-06T07:25:50;9.90;99.90
32698;DHT22;19087;51.062;3.754;2023-04-06T07:28:17;9.90;99.90
32698;DHT22;19087;51.062;3.754;2023-04-06T07:30:43;10.00;99.90
32698;DHT22;19087;51.062;3.754;2023-04-06T07:33:08;9.70;99.90
32698;DHT22;19087;51.062;3.754;2023-04-06T07:35:34;9.70;99.90
32698;DHT22;19087;51.062;3.754;2023-04-06T07:38:02;9.70;99.90
32698;DHT22;19087;51.062;3.754;2023-04-06T07:40:27;9.50;99.90
32698;DHT22;19087;51.062;3.754;2023-04-06T07:42:53;9.20;99.90
32698;DHT22;19087;51.062;3.754;2023-04-06T07:45:19;9.00;99.90
32698;DHT22;19087;51.062;3.754;2023-04-06T07:47:44;9.00;99.90
32698;DHT22;19087;51.062;3.754;2023-04-06T07:50:10;8.90;99.90
32698;DHT22;19087;51.062;3.754;2023-04-06T07:52:36;8.80;99.90
32698;DHT22;19087;51.062;3.754;2023-04-06T07:55:02;8.80;99.90
32698;DHT22;19087;51.062;3.754;2023-04-06T07:57:27;8.90;99.90
32698;DHT22;19087;51.062;3.754;2023-04-06T07:59:53;8.90;99.90
32698;DHT22;19087;51.062;3.754;2023-04-06T08:02:19;9.00;99.90
32698;DHT22;19087;51.062;3.754;2023-04-06T08:04:45;9.10;99.90
32698;DHT22;19087;51.062;3.754;2023-04-06T08:07:10;9.10;99.90
32698;DHT22;19087;51.062;3.754;2023-04-06T08:09:36;9.10;99.90
32698;DHT22;19087;51.062;3.754;2023-04-06T08:12:01;9.20;99.90
32698;DHT22;19087;51.062;3.754;2023-04-06T08:14:27;9.30;99.90
32698;DHT22;19087;51.062;3.754;2023-04-06T08:16:53;9.20;99.90
32698;DHT22;19087;51.062;3.754;2023-04-06T08:19:18;9.20;99.90
32698;DHT22;19087;51.062;3.754;2023-04-06T08:21:45;9.30;99.90
32698;DHT22;19087;51.062;3.754;2023-04-06T08:24:11;9.20;99.90
32698;DHT22;19087;51.062;3.754;2023-04-06T08:26:37;9.20;99.90
32698;DHT22;19087;51.062;3.754;2023-04-06T08:29:03;9.30;99.90
32698;DHT22;19087;51.062;3.754;2023-04-06T08:31:30;9.20;99.90
32698;DHT22;19087;51.062;3.754;2023-04-06T08:33:55;9.10;99.90
32698;DHT22;19087;51.062;3.754;2023-04-06T08:36:21;9.00;99.90
32698;DHT22;19087;51.062;3.754;2023-04-06T08:38:49;9.30;99.90
32698;DHT22;19087;51.062;3.754;2023-04-06T08:41:15;9.30;99.90
32698;DHT22;19087;51.062;3.754;2023-04-06T08:43:46;9.30;99.90
32698;DHT22;19087;51.062;3.754;2023-04-06T08:46:13;9.10;99.90
32698;DHT22;19087;51.062;3.754;2023-04-06T08:48:40;8.90;99.90
32698;DHT22;19087;51.062;3.754;2023-04-06T08:51:07;9.10;99.90
32698;DHT22;19087;51.062;3.754;2023-04-06T08:53:33;9.00;99.90
32698;DHT22;19087;51.062;3.754;2023-04-06T08:56:00;9.10;99.90
32698;DHT22;19087;51.062;3.754;2023-04-06T08:58:26;9.10;99.90
32698;DHT22;19087;51.062;3.754;2023-04-06T09:00:53;9.30;99.90
32698;DHT22;19087;51.062;3.754;2023-04-06T09:03:19;9.10;99.90
32698;DHT22;19087;51.062;3.754;2023-04-06T09:05:46;9.20;99.90
32698;DHT22;19087;51.062;3.754;2023-04-06T09:08:12;9.30;99.90
32698;DHT22;19087;51.062;3.754;2023-04-06T09:10:43;9.20;99.90
32698;DHT22;19087;51.062;3.754;2023-04-06T09:13:10;9.10;99.90
32698;DHT22;19087;51.062;3.754;2023-04-06T09:15:36;9.40;99.90
32698;DHT22;19087;51.062;3.754;2023-04-06T09:18:02;9.60;99.90
32698;DHT22;19087;51.062;3.754;2023-04-06T09:20:28;9.80;99.90
32698;DHT22;19087;51.062;3.754;2023-04-06T09:22:56;9.70;99.90
32698;DHT22;19087;51.062;3.754;2023-04-06T09:25:23;9.70;99.90
32698;DHT22;19087;51.062;3.754;2023-04-06T09:27:49;9.40;99.90
32698;DHT22;19087;51.062;3.754;2023-04-06T09:30:23;9.50;99.90
32698;DHT22;19087;51.062;3.754;2023-04-06T09:32:51;9.50;99.90
32698;DHT22;19087;51.062;3.754;2023-04-06T09:35:17;9.60;99.90
32698;DHT22;19087;51.062;3.754;2023-04-06T09:37:45;9.50;99.90
32698;DHT22;19087;51.062;3.754;2023-04-06T09:40:12;9.30;99.90
32698;DHT22;19087;51.062;3.754;2023-04-06T09:42:40;9.30;99.90
32698;DHT22;19087;51.062;3.754;2023-04-06T09:45:06;9.30;99.90
32698;DHT22;19087;51.062;3.754;2023-04-06T09:47:32;9.20;99.90
32698;DHT22;19087;51.062;3.754;2023-04-06T09:50:00;9.30;99.90
32698;DHT22;19087;51.062;3.754;2023-04-06T09:52:32;9.30;99.90
32698;DHT22;19087;51.062;3.754;2023-04-06T09:55:07;9.30;99.90
32698;DHT22;19087;51.062;3.754;2023-04-06T10:00:05;9.30;99.90
32698;DHT22;19087;51.062;3.754;2023-04-06T10:05:09;9.40;99.90
32698;DHT22;19087;51.062;3.754;2023-04-06T10:07:37;9.40;99.90
32698;DHT22;19087;51.062;3.754;2023-04-06T10:10:03;9.40;99.90
32698;DHT22;19087;51.062;3.754;2023-04-06T10:12:30;9.40;99.90
32698;DHT22;19087;51.062;3.754;2023-04-06T10:14:56;9.30;99.90
32698;DHT22;19087;51.062;3.754;2023-04-06T10:17:22;9.20;99.90
32698;DHT22;19087;51.062;3.754;2023-04-06T10:19:55;9.10;99.90
32698;DHT22;19087;51.062;3.754;2023-04-06T10:22:29;9.10;99.90
32698;DHT22;19087;51.062;3.754;2023-04-06T10:24:58;9.10;99.90
32698;DHT22;19087;51.062;3.754;2023-04-06T10:27:27;9.20;99.90
32698;DHT22;19087;51.062;3.754;2023-04-06T10:29:53;9.10;99.90
32698;DHT22;19087;51.062;3.754;2023-04-06T10:32:19;9.10;99.90
32698;DHT22;19087;51.062;3.754;2023-04-06T10:34:44;9.20;99.90
32698;DHT22;19087;51.062;3.754;2023-04-06T10:37:12;9.20;99.90
32698;DHT22;19087;51.062;3.754;2023-04-06T10:42:39;9.30;99.90
32698;DHT22;19087;51.062;3.754;2023-04-06T10:45:05;9.20;99.90
32698;DHT22;19087;51.062;3.754;2023-04-06T10:47:40;9.10;99.90
32698;DHT22;19087;51.062;3.754;2023-04-06T10:50:07;9.10;99.90
32698;DHT22;19087;51.062;3.754;2023-04-06T10:52:34;9.20;99.90
32698;DHT22;19087;51.062;3.754;2023-04-06T10:55:00;9.10;99.90
32698;DHT22;19087;51.062;3.754;2023-04-06T10:57:29;9.10;99.90
32698;DHT22;19087;51.062;3.754;2023-04-06T10:59:56;9.20;99.90
32698;DHT22;19087;51.062;3.754;2023-04-06T11:02:21;9.30;99.90
32698;DHT22;19087;51.062;3.754;2023-04-06T11:04:57;9.40;99.90
32698;DHT22;19087;51.062;3.754;2023-04-06T11:07:23;9.40;99.90
32698;DHT22;19087;51.062;3.754;2023-04-06T11:09:49;9.50;99.90
32698;DHT22;19087;51.062;3.754;2023-04-06T11:12:51;9.60;99.90
32698;DHT22;19087;51.062;3.754;2023-04-06T11:15:07;9.70;99.90
32698;DHT22;19087;51.062;3.754;2023-04-06T11:17:35;9.60;99.90
32698;DHT22;19087;51.062;3.754;2023-04-06T11:20:01;9.60;99.90
32698;DHT22;19087;51.062;3.754;2023-04-06T11:22:29;9.60;99.90
32698;DHT22;19087;51.062;3.754;2023-04-06T11:25:13;9.70;99.90
32698;DHT22;19087;51.062;3.754;2023-04-06T11:27:39;9.60;99.90
32698;DHT22;19087;51.062;3.754;2023-04-06T11:30:06;9.50;99.90
32698;DHT22;19087;51.062;3.754;2023-04-06T11:32:51;9.50;99.90
32698;DHT22;19087;51.062;3.754;2023-04-06T11:35:23;9.60;99.90
32698;DHT22;19087;51.062;3.754;2023-04-06T11:37:49;9.60;99.90
32698;DHT22;19087;51.062;3.754;2023-04-06T11:40:15;9.40;99.90
32698;DHT22;19087;51.062;3.754;2023-04-06T11:42:41;9.40;99.90
32698;DHT22;19087;51.062;3.754;2023-04-06T11:45:07;9.30;99.90
32698;DHT22;19087;51.062;3.754;2023-04-06T11:47:34;9.30;99.90
32698;DHT22;19087;51.062;3.754;2023-04-06T11:52:38;9.20;99.90
32698;DHT22;19087;51.062;3.754;2023-04-06T11:55:14;9.30;99.90
32698;DHT22;19087;51.062;3.754;2023-04-06T11:57:41;9.30;99.90
32698;DHT22;19087;51.062;3.754;2023-04-06T12:00:07;9.30;99.90
32698;DHT22;19087;51.062;3.754;2023-04-06T12:02:34;9.40;99.90
32698;DHT22;19087;51.062;3.754;2023-04-06T12:05:01;9.50;99.90
32698;DHT22;19087;51.062;3.754;2023-04-06T12:07:28;9.70;99.90
32698;DHT22;19087;51.062;3.754;2023-04-06T12:09:53;9.90;99.90
32698;DHT22;19087;51.062;3.754;2023-04-06T12:12:19;9.90;99.90
32698;DHT22;19087;51.062;3.754;2023-04-06T12:14:45;10.10;99.90
32698;DHT22;19087;51.062;3.754;2023-04-06T12:17:11;9.90;99.90
32698;DHT22;19087;51.062;3.754;2023-04-06T12:19:37;9.90;99.90
32698;DHT22;19087;51.062;3.754;2023-04-06T12:22:02;9.80;99.90
32698;DHT22;19087;51.062;3.754;2023-04-06T12:24:28;9.70;99.90
32698;DHT22;19087;51.062;3.754;2023-04-06T12:26:54;9.70;99.90
32698;DHT22;19087;51.062;3.754;2023-04-06T12:29:20;9.70;99.90
32698;DHT22;19087;51.062;3.754;2023-04-06T12:31:46;9.70;99.90
32698;DHT22;19087;51.062;3.754;2023-04-06T12:34:12;9.70;99.90
32698;DHT22;19087;51.062;3.754;2023-04-06T12:36:38;9.60;99.90
32698;DHT22;19087;51.062;3.754;2023-04-06T12:39:04;9.70;99.90
32698;DHT22;19087;51.062;3.754;2023-04-06T12:41:30;9.80;99.90
32698;DHT22;19087;51.062;3.754;2023-04-06T12:43:56;10.00;99.90
32698;DHT22;19087;51.062;3.754;2023-04-06T12:46:21;10.00;99.90
32698;DHT22;19087;51.062;3.754;2023-04-06T12:48:48;10.10;99.90
32698;DHT22;19087;51.062;3.754;2023-04-06T12:51:14;10.10;99.90
32698;DHT22;19087;51.062;3.754;2023-04-06T12:53:41;10.20;99.90
32698;DHT22;19087;51.062;3.754;2023-04-06T12:56:13;10.30;99.90
32698;DHT22;19087;51.062;3.754;2023-04-06T12:58:39;10.30;99.90
32698;DHT22;19087;51.062;3.754;2023-04-06T13:01:07;10.30;99.90
32698;DHT22;19087;51.062;3.754;2023-04-06T13:03:33;10.10;99.90
32698;DHT22;19087;51.062;3.754;2023-04-06T13:05:59;10.20;99.90
32698;DHT22;19087;51.062;3.754;2023-04-06T13:08:25;10.20;99.90
32698;DHT22;19087;51.062;3.754;2023-04-06T13:10:51;10.20;99.90
32698;DHT22;19087;51.062;3.754;2023-04-06T13:13:21;10.40;99.90
32698;DHT22;19087;51.062;3.754;2023-04-06T13:15:47;10.40;99.90
32698;DHT22;19087;51.062;3.754;2023-04-06T13:18:13;10.40;99.90
32698;DHT22;19087;51.062;3.754;2023-04-06T13:20:38;10.40;99.90
32698;DHT22;19087;51.062;3.754;2023-04-06T13:23:05;10.50;99.90
32698;DHT22;19087;51.062;3.754;2023-04-06T13:25:31;10.40;99.90
32698;DHT22;19087;51.062;3.754;2023-04-06T13:27:58;10.50;99.90
32698;DHT22;19087;51.062;3.754;2023-04-06T13:30:24;10.60;99.90
32698;DHT22;19087;51.062;3.754;2023-04-06T13:32:50;10.60;99.90
32698;DHT22;19087;51.062;3.754;2023-04-06T13:35:16;10.60;99.90
32698;DHT22;19087;51.062;3.754;2023-04-06T13:37:42;10.50;99.90
32698;DHT22;19087;51.062;3.754;2023-04-06T13:40:07;10.50;99.90
32698;DHT22;19087;51.062;3.754;2023-04-06T13:42:33;10.40;99.90
32698;DHT22;19087;51.062;3.754;2023-04-06T13:45:00;10.50;99.90
32698;DHT22;19087;51.062;3.754;2023-04-06T13:47:26;10.50;99.90
32698;DHT22;19087;51.062;3.754;2023-04-06T13:49:51;10.60;99.90
32698;DHT22;19087;51.062;3.754;2023-04-06T13:52:18;10.60;99.90
32698;DHT22;19087;51.062;3.754;2023-04-06T13:54:44;10.60;99.90
32698;DHT22;19087;51.062;3.754;2023-04-06T13:57:11;10.70;99.90
32698;DHT22;19087;51.062;3.754;2023-04-06T13:59:37;10.80;99.90
32698;DHT22;19087;51.062;3.754;2023-04-06T14:02:04;11.00;99.90
32698;DHT22;19087;51.062;3.754;2023-04-06T14:04:30;11.10;99.90
32698;DHT22;19087;51.062;3.754;2023-04-06T14:06:56;10.90;99.90
32698;DHT22;19087;51.062;3.754;2023-04-06T14:09:22;10.90;99.90
32698;DHT22;19087;51.062;3.754;2023-04-06T14:11:49;10.80;99.90
32698;DHT22;19087;51.062;3.754;2023-04-06T14:14:14;10.80;99.90
32698;DHT22;19087;51.062;3.754;2023-04-06T14:16:41;10.80;99.90
32698;DHT22;19087;51.062;3.754;2023-04-06T14:19:09;10.80;99.90
32698;DHT22;19087;51.062;3.754;2023-04-06T14:21:37;10.90;99.90
32698;DHT22;19087;51.062;3.754;2023-04-06T14:24:02;11.00;99.90
32698;DHT22;19087;51.062;3.754;2023-04-06T14:26:28;11.10;99.90
32698;DHT22;19087;51.062;3.754;2023-04-06T14:28:54;11.30;99.90
32698;DHT22;19087;51.062;3.754;2023-04-06T14:31:19;11.60;99.90
32698;DHT22;19087;51.062;3.754;2023-04-06T14:33:45;11.70;99.90
32698;DHT22;19087;51.062;3.754;2023-04-06T14:36:12;11.50;99.90
32698;DHT22;19087;51.062;3.754;2023-04-06T14:38:37;11.50;99.90
32698;DHT22;19087;51.062;3.754;2023-04-06T14:41:05;11.70;99.90
32698;DHT22;19087;51.062;3.754;2023-04-06T14:43:31;11.80;99.90
32698;DHT22;19087;51.062;3.754;2023-04-06T14:46:00;12.00;99.90
32698;DHT22;19087;51.062;3.754;2023-04-06T14:48:26;12.00;99.90
32698;DHT22;19087;51.062;3.754;2023-04-06T14:50:55;12.20;99.90
32698;DHT22;19087;51.062;3.754;2023-04-06T14:53:21;12.40;99.90
32698;DHT22;19087;51.062;3.754;2023-04-06T14:55:47;12.10;99.90
32698;DHT22;19087;51.062;3.754;2023-04-06T14:58:15;12.10;99.90
32698;DHT22;19087;51.062;3.754;2023-04-06T15:00:42;12.30;99.90
32698;DHT22;19087;51.062;3.754;2023-04-06T15:03:07;12.30;99.90
32698;DHT22;19087;51.062;3.754;2023-04-06T15:05:36;12.50;99.90
32698;DHT22;19087;51.062;3.754;2023-04-06T15:08:01;12.60;99.90
32698;DHT22;19087;51.062;3.754;2023-04-06T15:10:28;12.50;99.90
32698;DHT22;19087;51.062;3.754;2023-04-06T15:12:53;12.40;99.90
32698;DHT22;19087;51.062;3.754;2023-04-06T15:15:19;12.60;99.90
32698;DHT22;19087;51.062;3.754;2023-04-06T15:17:45;12.80;99.90
32698;DHT22;19087;51.062;3.754;2023-04-06T15:20:11;13.10;99.90
32698;DHT22;19087;51.062;3.754;2023-04-06T15:22:37;13.30;99.90
32698;DHT22;19087;51.062;3.754;2023-04-06T15:25:03;13.30;99.90
32698;DHT22;19087;51.062;3.754;2023-04-06T15:27:29;13.40;99.90
32698;DHT22;19087;51.062;3.754;2023-04-06T15:29:55;13.50;99.90
32698;DHT22;19087;51.062;3.754;2023-04-06T15:32:21;13.60;99.90
32698;DHT22;19087;51.062;3.754;2023-04-06T15:34:46;13.60;99.90
32698;DHT22;19087;51.062;3.754;2023-04-06T15:37:12;13.40;99.90
32698;DHT22;19087;51.062;3.754;2023-04-06T15:39:38;13.30;99.90
32698;DHT22;19087;51.062;3.754;2023-04-06T15:42:03;13.50;99.90
32698;DHT22;19087;51.062;3.754;2023-04-06T15:44:29;13.70;99.90